Time;durP1;ratioP1;P1;durP2;ratioP2;P2;SDS_P1;SDS_P2;PMS_P1;PMS_P2;Temp;Humidity;BMP_temperature;BMP_pressure;BME280_temperature;BME280_humidity;BME280_pressure;Samples;Min_cycle;Max_cycle;Signal;HPM_P1;HPM_P2
2021/12/12 00:02:34;;;;;;;27.20;15.80;;;;;;;1.79;92.55;101687.19;5093730;28;20076;-47
2021/12/12 00:05:07;;;;;;;28.10;15.38;;;;;;;1.76;92.66;101676.16;5089178;28;20102;-49
2021/12/12 00:07:35;;;;;;;28.02;14.18;;;;;;;1.74;92.81;101668.50;5072887;28;20131;-47
2021/12/12 00:10:18;;;;;;;23.63;12.05;;;;;;;1.75;92.90;101674.50;5088129;28;20082;-48
2021/12/12 00:12:48;;;;;;;23.60;13.10;;;;;;;1.80;92.71;101677.69;5082621;28;20124;-47
2021/12/12 00:15:17;;;;;;;22.63;12.57;;;;;;;1.81;92.71;101672.44;5092538;28;20131;-48
2021/12/12 00:17:44;;;;;;;24.77;12.65;;;;;;;1.79;92.77;101670.84;5084916;28;20132;-48
2021/12/12 00:20:15;;;;;;;27.58;13.50;;;;;;;1.82;92.63;101678.44;5092731;28;20102;-48
2021/12/12 00:22:42;;;;;;;24.88;12.82;;;;;;;1.82;92.72;101684.44;5090418;28;20081;-47
2021/12/12 00:25:11;;;;;;;22.73;12.45;;;;;;;1.86;92.53;101677.41;5092613;28;20119;-50
2021/12/12 00:27:38;;;;;;;22.13;12.30;;;;;;;1.85;92.50;101675.72;5092580;28;20131;-49
2021/12/12 00:30:06;;;;;;;22.50;11.60;;;;;;;1.91;92.11;101677.97;5089351;28;20126;-49
2021/12/12 00:32:36;;;;;;;24.27;11.30;;;;;;;1.96;92.10;101678.59;5092703;28;20075;-47
2021/12/12 00:35:07;;;;;;;21.15;11.50;;;;;;;1.96;91.98;101676.00;5093134;28;20056;-47
2021/12/12 00:37:34;;;;;;;21.15;11.15;;;;;;;1.92;92.04;101677.06;5092772;28;20545;-52
2021/12/12 00:40:06;;;;;;;18.02;10.52;;;;;;;1.97;91.69;101682.84;5092763;28;20480;-47
2021/12/12 00:42:37;;;;;;;18.30;10.83;;;;;;;1.94;91.83;101685.56;5091913;28;20090;-47
2021/12/12 00:45:08;;;;;;;20.90;10.45;;;;;;;1.93;92.02;101679.56;5092714;28;20146;-49
2021/12/12 00:47:35;;;;;;;19.30;10.35;;;;;;;1.95;91.96;101682.09;5092694;28;20135;-48
2021/12/12 00:50:04;;;;;;;23.63;10.25;;;;;;;1.98;91.76;101689.69;5092369;28;20101;-48
2021/12/12 00:52:31;;;;;;;19.55;10.02;;;;;;;2.01;91.84;101684.38;5092210;28;20487;-51
2021/12/12 00:54:58;;;;;;;17.83;9.68;;;;;;;2.02;91.73;101680.88;5092549;28;20129;-49
2021/12/12 00:57:25;;;;;;;17.55;9.55;;;;;;;2.03;91.61;101679.97;5092112;28;20466;-55
2021/12/12 00:59:53;;;;;;;23.55;10.60;;;;;;;2.06;91.64;101684.13;5092648;28;20130;-50
2021/12/12 01:02:23;;;;;;;17.17;9.85;;;;;;;2.04;91.81;101676.47;5092848;28;20088;-47
2021/12/12 01:04:53;;;;;;;20.33;10.85;;;;;;;2.09;91.47;101669.34;5092744;28;20082;-48
2021/12/12 01:07:23;;;;;;;16.70;10.27;;;;;;;2.14;91.24;101667.38;5092344;28;20134;-50
2021/12/12 01:09:53;;;;;;;20.23;9.10;;;;;;;2.15;91.93;101666.44;5091898;28;20143;-50
2021/12/12 01:12:23;;;;;;;20.77;10.00;;;;;;;2.20;91.36;101661.06;5092465;28;20479;-49
2021/12/12 01:14:56;;;;;;;17.10;9.77;;;;;;;2.20;91.11;101656.72;5092491;28;20087;-49
2021/12/12 01:17:24;;;;;;;;;;;;;;;2.25;91.05;101649.59;5092689;28;20450;-48
2021/12/12 01:19:55;;;;;;;15.98;8.95;;;;;;;2.26;91.43;101651.25;5091952;28;20391;-51
2021/12/12 01:22:32;;;;;;;19.77;8.82;;;;;;;2.27;91.80;101652.94;5092201;28;20439;-48
2021/12/12 01:25:07;;;;;;;16.83;8.45;;;;;;;2.24;91.54;101647.91;5091874;28;20081;-47
2021/12/12 01:27:34;;;;;;;19.65;9.15;;;;;;;2.34;91.58;101658.63;5091788;28;20044;-48
2021/12/12 01:30:02;;;;;;;20.75;10.45;;;;;;;2.31;91.46;101663.94;5091730;28;20083;-47
2021/12/12 01:32:32;;;;;;;20.08;8.75;;;;;;;2.31;91.66;101659.63;5091820;28;20131;-48
2021/12/12 01:35:00;;;;;;;15.15;8.85;;;;;;;2.38;91.47;101660.09;5091670;28;20060;-47
2021/12/12 01:37:39;;;;;;;19.23;9.52;;;;;;;2.38;91.42;101654.09;5091487;28;20063;-48
2021/12/12 01:40:16;;;;;;;19.60;9.43;;;;;;;2.42;91.37;101655.63;5092091;28;20048;-48
2021/12/12 01:42:46;;;;;;;21.52;9.30;;;;;;;2.45;91.27;101650.28;5091879;28;20244;-49
2021/12/12 01:45:19;;;;;;;19.00;9.93;;;;;;;2.43;91.17;101654.72;5091507;28;20093;-54
2021/12/12 01:47:52;;;;;;;17.88;9.25;;;;;;;2.36;91.16;101650.78;5092092;28;20083;-50
2021/12/12 01:50:23;;;;;;;17.77;7.97;;;;;;;2.39;91.55;101648.03;5091451;28;20165;-51
2021/12/12 01:52:51;;;;;;;17.70;8.18;;;;;;;2.37;91.28;101657.59;5091779;28;20116;-52
2021/12/12 01:55:23;;;;;;;17.55;8.73;;;;;;;2.35;91.40;101652.53;5092142;28;20084;-52
2021/12/12 01:57:52;;;;;;;14.05;8.45;;;;;;;2.32;91.77;101652.69;5091827;28;20048;-49
2021/12/12 02:00:24;;;;;;;16.58;8.65;;;;;;;2.30;91.59;101647.63;5091847;28;20075;-47
2021/12/12 02:02:52;;;;;;;19.55;8.65;;;;;;;2.41;91.62;101641.03;5091921;28;20130;-49
2021/12/12 02:05:20;;;;;;;17.73;8.73;;;;;;;2.45;91.68;101651.13;5091348;28;20127;-47
2021/12/12 02:07:59;;;;;;;18.83;8.70;;;;;;;2.44;91.82;101644.28;5091396;28;20131;-49
2021/12/12 02:10:28;;;;;;;18.38;8.77;;;;;;;2.46;91.23;101639.06;5091309;28;20094;-46
2021/12/12 02:12:56;;;;;;;19.83;8.95;;;;;;;2.42;91.28;101629.78;5092056;28;20131;-52
2021/12/12 02:15:25;;;;;;;15.93;8.00;;;;;;;2.44;91.53;101633.13;5091402;28;20048;-54
2021/12/12 02:17:53;;;;;;;14.32;8.30;;;;;;;2.45;91.34;101637.38;5091441;28;20471;-49
2021/12/12 02:20:30;;;;;;;15.35;7.20;;;;;;;2.51;91.46;101631.91;5091179;28;20177;-50
2021/12/12 02:23:07;;;;;;;17.52;9.35;;;;;;;2.53;91.84;101637.81;5091280;28;20044;-54
2021/12/12 02:36:36;;;;;;;17.23;8.05;;;;;;;2.74;90.67;101628.94;5090714;28;20150;-49
2021/12/12 02:39:15;;;;;;;15.80;7.72;;;;;;;2.81;90.70;101629.47;5093270;28;20048;-51
2021/12/12 02:41:42;;;;;;;20.15;9.13;;;;;;;2.80;90.55;101627.78;5093987;28;20076;-48
2021/12/12 02:44:10;;;;;;;13.38;8.43;;;;;;;2.77;90.82;101627.97;5091699;28;20070;-48
2021/12/12 02:46:37;;;;;;;18.08;8.35;;;;;;;2.80;90.41;101622.63;5090882;28;20074;-51
2021/12/12 02:49:11;;;;;;;18.30;9.07;;;;;;;2.87;90.66;101621.34;5090992;28;20095;-48
2021/12/12 02:51:52;;;;;;;19.38;8.88;;;;;;;2.71;90.61;101600.69;5108117;22;20182;-81
2021/12/12 02:54:29;;;;;;;17.73;7.80;;;;;;;2.75;90.52;101604.78;5053441;28;20419;-82
2021/12/12 02:56:57;;;;;;;16.05;7.65;;;;;;;2.79;90.27;101614.03;5057934;28;20151;-81
2021/12/12 02:59:40;;;;;;;14.90;8.60;;;;;;;2.84;90.71;101606.00;5061612;28;20049;-81
2021/12/12 03:02:13;;;;;;;17.00;8.10;;;;;;;2.75;90.80;101596.19;5065528;28;20052;-81
2021/12/12 03:04:45;;;;;;;13.68;8.27;;;;;;;2.80;90.85;101600.19;5063868;28;20426;-82
2021/12/12 03:07:15;;;;;;;14.00;8.07;;;;;;;2.76;90.54;101598.69;5064176;28;20332;-81
2021/12/12 03:10:02;;;;;;;16.42;8.18;;;;;;;2.86;90.65;101610.19;5065268;28;20052;-82
2021/12/12 03:12:38;;;;;;;16.73;8.38;;;;;;;2.89;90.42;101624.69;5068367;28;20091;-83
2021/12/12 03:15:38;;;;;;;14.23;8.20;;;;;;;2.91;90.43;101612.53;5068535;28;20049;-82
2021/12/12 03:21:29;;;;;;;15.65;7.88;;;;;;;2.89;90.41;101599.69;5039650;28;20073;-83
2021/12/12 03:24:01;;;;;;;17.67;8.27;;;;;;;2.81;90.23;101588.09;5072285;28;20134;-83
2021/12/12 03:26:35;;;;;;;17.73;8.52;;;;;;;2.93;90.20;101595.19;5060686;28;20049;-83
2021/12/12 03:29:04;;;;;;;17.55;7.95;;;;;;;2.89;90.48;101607.44;5067986;28;20124;-81
2021/12/12 03:31:33;;;;;;;14.60;8.18;;;;;;;2.99;90.33;101618.94;5058956;28;20110;-82
2021/12/12 03:34:01;;;;;;;17.25;7.82;;;;;;;3.00;90.65;101615.44;5057377;28;20140;-82
2021/12/12 03:36:28;;;;;;;16.05;8.43;;;;;;;3.01;90.71;101608.53;5060470;28;20049;-84
2021/12/12 03:39:01;;;;;;;13.15;7.63;;;;;;;3.05;90.62;101616.94;5057553;28;20095;-84
2021/12/12 03:41:40;;;;;;;13.23;8.13;;;;;;;3.04;90.63;101607.53;5058967;28;20136;-84
2021/12/12 03:44:20;;;;;;;20.65;8.23;;;;;;;2.92;89.97;101584.00;5057285;28;20060;-83
2021/12/12 03:46:54;;;;;;;16.85;8.52;;;;;;;3.01;90.35;101605.94;5057551;28;20053;-82
2021/12/12 03:49:29;;;;;;;19.27;8.05;;;;;;;3.05;90.19;101609.19;5057599;28;20354;-83
2021/12/12 03:51:59;;;;;;;15.02;8.10;;;;;;;2.97;90.52;101589.75;5059930;28;20115;-85
2021/12/12 03:54:27;;;;;;;15.60;8.23;;;;;;;3.15;90.27;101625.88;5060275;28;20055;-82
2021/12/12 03:56:55;;;;;;;14.80;8.90;;;;;;;3.01;90.83;101603.34;5068797;28;20049;-82
2021/12/12 03:59:22;;;;;;;16.80;8.20;;;;;;;3.11;90.23;101629.56;5070389;28;20336;-82
2021/12/12 04:01:53;;;;;;;23.65;8.77;;;;;;;2.99;90.85;101610.34;5071394;28;20041;-81
2021/12/12 04:04:24;;;;;;;14.65;8.10;;;;;;;3.13;90.94;101638.06;5058928;28;20107;-82
2021/12/12 04:06:52;;;;;;;13.77;8.23;;;;;;;3.16;91.26;101643.91;5056458;28;20100;-84
2021/12/12 04:09:19;;;;;;;23.25;9.43;;;;;;;3.14;91.56;101637.13;5055906;28;20148;-82
2021/12/12 04:11:49;;;;;;;19.63;9.18;;;;;;;3.19;92.02;101637.72;5055975;28;20128;-82
2021/12/12 04:14:18;;;;;;;17.95;8.43;;;;;;;3.18;91.83;101625.72;5056981;28;20061;-82
2021/12/12 04:16:49;;;;;;;19.58;9.07;;;;;;;3.21;91.71;101617.78;5056661;28;20056;-82
2021/12/12 04:19:16;;;;;;;19.10;8.40;;;;;;;3.18;92.20;101623.13;5056069;28;20389;-81
2021/12/12 04:21:45;;;;;;;19.30;9.07;;;;;;;3.21;92.05;101615.19;5056363;28;20072;-82
2021/12/12 04:24:18;;;;;;;19.23;8.82;;;;;;;3.19;92.30;101609.28;5057670;28;20049;-81
2021/12/12 04:26:44;;;;;;;;;;;;;;;3.18;93.04;101611.03;5064073;28;20115;-82
2021/12/12 04:29:19;;;;;;;15.82;8.50;;;;;;;3.19;93.43;101614.44;5070152;28;19927;-82
2021/12/12 04:31:50;;;;;;;19.77;9.15;;;;;;;3.27;93.70;101617.44;5058397;28;20370;-80
2021/12/12 04:34:18;;;;;;;21.08;9.02;;;;;;;3.30;92.84;101617.28;5062070;28;20049;-81
2021/12/12 04:36:50;;;;;;;20.42;9.07;;;;;;;3.29;93.30;101616.44;5060017;28;20056;-83
2021/12/12 04:39:20;;;;;;;23.80;9.50;;;;;;;3.36;93.54;101616.91;5059259;28;20069;-83
2021/12/12 04:41:53;;;;;;;18.25;8.73;;;;;;;3.36;93.79;101627.25;5059203;28;20080;-84
2021/12/12 04:44:29;;;;;;;21.92;9.63;;;;;;;3.22;93.97;101612.53;5056190;28;20084;-83
2021/12/12 04:50:02;;;;;;;22.10;8.95;;;;;;;3.19;94.47;101593.75;5029823;28;20045;-83
2021/12/12 04:52:42;;;;;;;21.65;10.13;;;;;;;3.19;94.73;101591.19;5056422;28;20292;-83
2021/12/12 04:55:15;;;;;;;25.83;10.40;;;;;;;3.23;94.41;101597.84;5056129;28;20060;-82
2021/12/12 04:57:47;;;;;;;22.92;10.68;;;;;;;3.27;94.70;101596.75;5053188;28;20259;-83
2021/12/12 05:00:18;;;;;;;28.88;10.43;;;;;;;3.37;94.83;101610.81;5055627;28;20081;-83
2021/12/12 05:02:54;;;;;;;24.13;10.52;;;;;;;3.36;94.81;101591.03;5055264;28;20411;-82
2021/12/12 05:05:27;;;;;;;18.80;10.80;;;;;;;3.34;95.46;101596.31;5054764;28;20435;-82
2021/12/12 05:08:00;;;;;;;20.23;10.27;;;;;;;3.24;95.86;101581.41;5017972;28;20079;-83
2021/12/12 05:10:30;;;;;;;;;;;;;;;3.42;95.97;101602.81;5015192;28;20053;-83
2021/12/12 05:13:03;;;;;;;24.30;10.40;;;;;;;3.44;95.52;101601.81;5014039;28;19922;-84
2021/12/12 05:15:35;;;;;;;20.33;11.32;;;;;;;3.43;96.29;101599.28;5011940;28;20301;-84
2021/12/12 05:18:06;;;;;;;25.00;11.55;;;;;;;3.48;95.74;101612.81;5013549;28;20140;-83
2021/12/12 05:20:35;;;;;;;24.40;10.85;;;;;;;3.48;96.18;101597.28;5033944;28;20061;-83
2021/12/12 05:23:07;;;;;;;20.73;11.50;;;;;;;3.47;96.44;101600.78;5026943;28;20132;-84
2021/12/12 05:25:39;;;;;;;23.42;11.73;;;;;;;3.47;96.38;101596.44;5019689;28;20531;-80
2021/12/12 05:28:07;;;;;;;24.55;11.95;;;;;;;3.49;96.29;101594.63;5013547;28;20056;-81
2021/12/12 05:30:36;;;;;;;20.40;11.50;;;;;;;3.54;96.38;101602.94;5015268;28;20084;-82
2021/12/12 05:33:05;;;;;;;25.38;11.80;;;;;;;3.54;96.44;101608.13;5023782;28;20460;-82
2021/12/12 05:35:36;;;;;;;29.60;11.60;;;;;;;3.51;96.69;101597.94;5045923;28;20060;-81
2021/12/12 05:38:05;;;;;;;23.25;11.60;;;;;;;3.43;97.69;101596.72;5021210;28;20118;-83
2021/12/12 05:40:34;;;;;;;23.73;12.30;;;;;;;3.49;97.64;101598.97;5022581;28;20049;-83
2021/12/12 05:43:03;;;;;;;28.75;12.30;;;;;;;3.48;97.14;101598.13;5030605;28;20049;-82
2021/12/12 05:45:33;;;;;;;26.92;12.20;;;;;;;3.47;97.99;101605.97;5026343;28;20370;-83
2021/12/12 05:48:06;;;;;;;23.80;12.00;;;;;;;3.39;97.66;101603.81;5024039;28;20049;-83
2021/12/12 05:50:33;;;;;;;22.15;13.30;;;;;;;3.37;98.09;101600.47;5018807;28;20073;-84
2021/12/12 05:53:08;;;;;;;29.00;13.20;;;;;;;3.40;98.44;101610.66;5013890;28;20049;-82
2021/12/12 05:55:41;;;;;;;33.75;14.00;;;;;;;3.40;98.38;101613.25;5013833;28;20374;-83
2021/12/12 05:58:13;;;;;;;32.45;14.50;;;;;;;3.39;99.02;101613.31;5013235;28;20049;-82
2021/12/12 06:00:48;;;;;;;31.60;13.80;;;;;;;3.36;99.10;101614.31;5018154;28;20046;-84
2021/12/12 06:03:28;;;;;;;26.70;13.93;;;;;;;3.41;99.35;101617.50;5039690;28;20042;-83
2021/12/12 06:05:59;;;;;;;33.45;14.13;;;;;;;3.41;99.22;101616.66;5043086;28;20054;-85
2021/12/12 06:08:28;;;;;;;34.00;14.65;;;;;;;3.44;99.14;101611.31;5027607;28;20443;-83
2021/12/12 06:10:57;;;;;;;32.92;15.38;;;;;;;3.46;99.15;101615.47;5021497;28;20058;-83
2021/12/12 06:13:27;;;;;;;31.88;14.52;;;;;;;3.50;98.97;101611.81;5017613;28;20339;-82
2021/12/12 06:15:56;;;;;;;35.50;14.88;;;;;;;3.52;98.89;101611.72;5016995;28;20058;-83
2021/12/12 06:18:31;;;;;;;27.83;14.25;;;;;;;3.57;99.24;101607.13;5015623;28;20042;-85
2021/12/12 06:20:58;;;;;;;28.58;14.38;;;;;;;3.51;99.38;101608.31;5021994;28;20148;-85
2021/12/12 06:23:26;;;;;;;28.75;14.60;;;;;;;3.50;99.70;101605.78;5018929;28;20168;-83
2021/12/12 06:25:53;;;;;;;35.10;14.75;;;;;;;3.53;99.47;101605.63;5017107;28;20145;-84
2021/12/12 06:28:24;;;;;;;35.22;14.90;;;;;;;3.56;99.57;101605.44;5018300;28;20054;-82
2021/12/12 06:30:54;;;;;;;27.92;14.50;;;;;;;3.57;99.30;101600.19;5018356;28;20054;-83
2021/12/12 06:33:29;;;;;;;33.38;14.38;;;;;;;3.57;99.89;101602.78;5019266;28;20432;-83
2021/12/12 06:35:57;;;;;;;28.80;14.23;;;;;;;3.51;99.57;101599.69;5018021;28;20052;-83
2021/12/12 06:38:27;;;;;;;26.35;14.13;;;;;;;3.48;99.82;101594.69;5016999;28;20164;-83
2021/12/12 06:41:01;;;;;;;34.05;15.02;;;;;;;3.53;99.46;101601.28;5025508;28;20144;-84
2021/12/12 06:43:31;;;;;;;30.02;14.65;;;;;;;3.61;99.59;101617.22;5021618;28;20050;-84
2021/12/12 06:46:08;;;;;;;31.35;14.93;;;;;;;3.51;100.00;101592.78;5021168;28;20525;-85
2021/12/12 06:48:57;;;;;;;33.33;15.57;;;;;;;3.55;100.00;101607.22;5021060;28;20192;-85
2021/12/12 06:51:28;;;;;;;35.33;15.45;;;;;;;3.57;100.00;101597.59;5020649;28;20057;-84
2021/12/12 06:57:02;;;;;;;37.17;16.13;;;;;;;3.74;100.00;101634.66;5021700;28;20111;-84
2021/12/12 06:59:42;;;;;;;32.85;14.88;;;;;;;3.73;100.00;101635.56;5020153;28;20069;-83
2021/12/12 07:02:14;;;;;;;38.08;16.20;;;;;;;3.69;100.00;101611.59;5018764;28;20134;-83
2021/12/12 07:04:50;;;;;;;31.25;14.05;;;;;;;3.79;100.00;101622.25;5020206;28;20053;-85
2021/12/12 07:07:27;;;;;;;25.33;14.02;;;;;;;3.82;100.00;101616.88;5019282;28;20056;-83
2021/12/12 07:09:59;;;;;;;29.95;14.10;;;;;;;3.69;99.87;101590.91;5020406;28;20471;-84
2021/12/12 07:12:28;;;;;;;29.20;14.15;;;;;;;3.87;100.00;101618.28;5021363;28;20050;-83
2021/12/12 07:14:59;;;;;;;26.45;13.88;;;;;;;3.89;99.98;101625.97;5021979;28;20177;-84
2021/12/12 07:17:30;;;;;;;29.75;13.52;;;;;;;3.89;100.00;101621.63;5021029;28;20072;-84
2021/12/12 07:20:11;;;;;;;31.63;14.13;;;;;;;3.83;99.61;101613.38;5022898;28;20050;-84
2021/12/12 07:22:45;;;;;;;27.98;13.43;;;;;;;3.78;100.00;101599.91;5027521;28;20065;-83
2021/12/12 07:25:29;;;;;;;23.48;12.98;;;;;;;3.90;99.94;101618.13;5032540;28;20085;-83
2021/12/12 07:28:09;;;;;;;25.70;13.85;;;;;;;3.78;100.00;101603.28;5030540;28;20057;-84
2021/12/12 07:30:42;;;;;;;31.70;13.38;;;;;;;3.89;100.00;101611.28;5031157;28;20088;-83
2021/12/12 07:33:22;;;;;;;24.15;12.45;;;;;;;3.85;100.00;101603.75;5030818;28;20050;-83
2021/12/12 07:36:03;;;;;;;24.65;13.23;;;;;;;3.95;100.00;101610.09;5032473;28;20135;-84
2021/12/12 07:39:04;;;;;;;25.13;12.38;;;;;;;4.05;100.00;101619.00;5028677;28;20061;-85
2021/12/12 07:41:32;;;;;;;22.60;13.02;;;;;;;3.97;100.00;101605.66;5021210;28;20050;-85
2021/12/12 07:52:06;;;;;;;25.35;12.88;;;;;;;3.95;100.00;101603.16;4964512;28;20101;-86
2021/12/12 07:55:04;;;;;;;27.45;12.85;;;;;;;4.00;100.00;101605.47;4958564;29;20065;-86
2021/12/12 07:57:59;;;;;;;25.83;13.07;;;;;;;4.12;100.00;101615.13;4960651;29;20111;-87
2021/12/12 08:00:55;;;;;;;26.30;12.48;;;;;;;4.06;99.89;101597.34;4965503;29;20078;-88
2021/12/12 08:10:12;;;;;;;22.80;12.13;;;;;;;4.21;100.00;101624.94;5030043;28;20058;-89
2021/12/12 08:26:49;;;;;;;20.92;10.65;;;;;;;4.32;100.00;101657.97;4827609;29;20054;-85
2021/12/12 08:30:01;;;;;;;25.70;11.52;;;;;;;4.21;100.00;101642.25;4798702;29;20107;-85
2021/12/12 08:36:41;;;;;;;22.98;11.18;;;;;;;4.42;100.00;101664.28;4879693;29;20082;-85
2021/12/12 08:52:39;;;;;;;16.75;10.65;;;;;;;4.60;99.93;101658.00;4948951;23;20410;-80
2021/12/12 08:55:14;;;;;;;16.95;10.00;;;;;;;4.63;99.28;101656.97;5015423;28;20132;-80
2021/12/12 08:57:49;;;;;;;19.08;9.88;;;;;;;4.66;100.00;101657.63;5015594;28;20440;-80
2021/12/12 09:00:25;;;;;;;14.18;9.23;;;;;;;4.68;99.85;101665.31;5015761;28;20057;-80
2021/12/12 09:02:56;;;;;;;20.38;12.55;;;;;;;4.65;99.57;101670.69;5014826;28;20132;-81
2021/12/12 09:05:28;;;;;;;19.35;10.02;;;;;;;4.73;99.02;101671.03;5015321;28;20399;-81
2021/12/12 09:08:04;;;;;;;17.23;9.70;;;;;;;4.80;99.01;101676.69;5014652;28;20054;-80
2021/12/12 09:10:46;;;;;;;15.30;9.45;;;;;;;4.70;99.05;101645.31;5015083;28;20050;-80
2021/12/12 09:13:20;;;;;;;13.23;8.75;;;;;;;4.86;98.51;101673.72;5007812;28;20054;-81
2021/12/12 09:15:56;;;;;;;13.38;7.82;;;;;;;4.83;98.82;101666.94;4996436;28;20333;-81
2021/12/12 09:18:30;;;;;;;9.88;6.78;;;;;;;4.96;98.12;101675.66;4996507;28;20133;-80
2021/12/12 09:21:23;;;;;;;12.32;7.05;;;;;;;5.02;97.86;101687.41;4996343;28;20078;-80
2021/12/12 09:24:03;;;;;;;9.77;6.73;;;;;;;5.03;98.18;101698.63;4995830;28;20077;-80
2021/12/12 09:26:32;;;;;;;12.52;7.25;;;;;;;4.99;98.18;101685.00;4995783;28;20499;-79
2021/12/12 09:29:07;;;;;;;10.07;7.00;;;;;;;5.02;98.26;101699.56;4995520;28;20054;-79
2021/12/12 09:31:38;;;;;;;10.10;6.80;;;;;;;4.89;98.34;101674.34;4995457;28;20054;-79
2021/12/12 09:34:11;;;;;;;13.98;6.70;;;;;;;4.99;98.24;101687.59;4995476;28;20054;-79
2021/12/12 09:40:25;;;;;;;12.10;7.18;;;;;;;4.94;98.21;101661.13;4970146;28;20004;-81
2021/12/12 09:43:28;;;;;;;8.13;6.75;;;;;;;4.97;97.70;101661.75;4993719;28;20076;-81
2021/12/12 09:46:30;;;;;;;11.10;7.13;;;;;;;5.14;97.56;101678.06;4994383;28;20068;-80
2021/12/12 09:53:09;;;;;;;12.65;7.18;;;;;;;5.18;97.44;101669.97;4994700;28;20065;-81
2021/12/12 09:56:10;;;;;;;10.18;7.25;;;;;;;5.17;97.58;101651.91;4993833;28;20046;-81
2021/12/12 09:58:47;;;;;;;8.35;6.40;;;;;;;5.22;96.86;101655.84;4995399;28;20054;-79
2021/12/12 10:01:29;;;;;;;10.95;6.47;;;;;;;5.34;97.22;101670.66;4995288;28;20069;-80
2021/12/12 10:04:16;;;;;;;7.82;5.28;;;;;;;5.44;96.68;101670.91;4994784;28;20141;-80
2021/12/12 10:06:56;;;;;;;9.13;5.13;;;;;;;5.44;97.00;101657.94;4999529;28;20046;-80
2021/12/12 10:09:43;;;;;;;5.85;5.00;;;;;;;5.50;96.70;101667.94;5011974;28;20061;-80
2021/12/12 10:12:14;;;;;;;8.07;5.07;;;;;;;5.50;96.85;101670.53;5012918;28;20100;-77
2021/12/12 10:15:07;;;;;;;8.48;5.03;;;;;;;5.49;97.08;101679.25;5016273;28;20084;-79
2021/12/12 10:18:06;;;;;;;10.88;5.63;;;;;;;5.49;96.55;101671.47;5014865;28;20087;-78
2021/12/12 10:24:05;;;;;;;7.22;5.43;;;;;;;5.57;96.75;101681.34;4972739;28;20652;-81
2021/12/12 10:30:20;;;;;;;8.57;5.30;;;;;;;5.57;95.90;101669.22;5018195;28;20127;-81
2021/12/12 10:32:59;;;;;;;7.47;5.78;;;;;;;5.62;96.55;101674.94;5016512;28;20054;-81
2021/12/12 10:35:36;;;;;;;7.68;5.57;;;;;;;5.50;96.20;101654.94;5010488;28;20053;-81
2021/12/12 10:38:55;;;;;;;;;;;;;;;;;;;;;
2021/12/12 10:41:49;;;;;;;6.18;5.13;;;;;;;5.65;95.70;101684.31;4998412;28;20077;-80
2021/12/12 10:44:26;;;;;;;6.47;5.22;;;;;;;5.64;95.21;101672.25;4986138;28;20054;-80
2021/12/12 10:50:05;;;;;;;5.55;4.78;;;;;;;5.83;94.96;101682.25;5004093;28;20050;-81
2021/12/12 10:53:03;;;;;;;6.97;4.70;;;;;;;5.83;95.15;101687.47;5008419;28;20042;-82
2021/12/12 10:55:58;;;;;;;7.78;6.10;;;;;;;5.88;95.11;101690.59;5008671;28;20050;-81
2021/12/12 10:59:18;;;;;;;8.68;5.53;;;;;;;5.89;95.81;101676.69;5006501;28;20053;-82
2021/12/12 11:05:57;;;;;;;8.10;5.40;;;;;;;5.95;95.77;101681.50;5003395;28;20049;-82
2021/12/12 11:08:41;;;;;;;8.02;5.40;;;;;;;5.90;94.96;101657.59;4987123;28;20050;-83
2021/12/12 11:14:45;;;;;;;8.50;5.20;;;;;;;5.94;96.06;101664.25;4955366;28;20455;-82
2021/12/12 11:20:45;;;;;;;8.93;5.20;;;;;;;6.05;95.88;101687.75;4932671;29;20092;-81
2021/12/12 11:26:42;;;;;;;6.80;5.20;;;;;;;6.11;96.59;101694.31;5012866;28;20087;-82
2021/12/12 11:29:21;;;;;;;6.80;5.28;;;;;;;6.07;96.61;101679.88;5009481;28;20054;-82
2021/12/12 11:31:54;;;;;;;7.35;5.20;;;;;;;6.05;97.11;101664.38;5017737;28;20053;-82
2021/12/12 11:34:29;;;;;;;8.15;5.10;;;;;;;6.14;97.27;101681.97;5009712;28;20050;-81
2021/12/12 11:37:18;;;;;;;9.45;4.85;;;;;;;6.15;97.14;101695.75;5017245;28;20440;-80
2021/12/12 11:40:26;;;;;;;7.78;5.55;;;;;;;6.29;97.45;101696.50;5016815;28;20053;-81
2021/12/12 11:46:59;;;;;;;6.80;5.20;;;;;;;6.30;97.77;101685.19;4916184;29;20056;-81
2021/12/12 11:50:21;;;;;;;;;;;;;;;;;;;;;
2021/12/12 11:53:12;;;;;;;8.38;6.13;;;;;;;6.43;98.41;101708.59;4892686;29;20068;-81
2021/12/12 11:56:06;;;;;;;8.48;6.07;;;;;;;6.51;98.61;101715.88;4990569;28;20104;-80
2021/12/12 12:02:17;;;;;;;10.32;6.82;;;;;;;6.52;98.88;101697.56;5019397;28;20443;-79
2021/12/12 12:05:43;;;;;;;;;;;;;;;;;;;;;
2021/12/12 12:12:04;;;;;;;9.70;6.70;;;;;;;6.64;99.51;101703.69;5014708;28;20146;-80
2021/12/12 12:15:14;;;;;;;10.85;7.00;;;;;;;6.69;99.23;101700.78;4979786;28;20509;-79
2021/12/12 12:18:31;;;;;;;10.15;6.78;;;;;;;6.53;99.53;101681.03;4975093;28;20102;-80
2021/12/12 12:27:36;;;;;;;14.23;6.68;;;;;;;6.65;99.80;101703.59;5011436;28;20054;-80
2021/12/12 12:34:15;;;;;;;;;;;;;;;;;;;;;
2021/12/12 12:51:45;;;;;;;13.52;8.02;;;;;;;6.65;100.00;101682.78;4994115;28;20054;-80
2021/12/12 12:54:54;;;;;;;14.25;8.27;;;;;;;6.84;99.82;101691.94;4902911;29;20071;-80
2021/12/12 12:57:31;;;;;;;14.75;7.88;;;;;;;6.91;100.00;101706.19;4965292;28;20060;-80
2021/12/12 13:00:28;;;;;;;13.13;9.23;;;;;;;6.97;99.85;101708.38;5015377;28;20053;-79
2021/12/12 13:07:08;;;;;;;;;;;;;;;;;;;;;
2021/12/12 13:13:30;;;;;;;16.58;8.43;;;;;;;6.89;99.99;101679.44;4997690;28;20144;-79
2021/12/12 13:19:58;;;;;;;25.65;18.45;;;;;;;6.96;100.00;101686.72;5011795;28;20053;-80
2021/12/12 13:23:00;;;;;;;32.67;24.63;;;;;;;7.01;100.00;101683.78;4981406;28;20080;-78
2021/12/12 13:29:03;;;;;;;33.63;26.13;;;;;;;7.14;99.97;101707.16;4980384;28;20141;-80
2021/12/12 13:31:54;;;;;;;16.45;10.95;;;;;;;7.17;100.00;101699.97;4983308;28;20138;-80
2021/12/12 13:34:40;;;;;;;31.00;21.75;;;;;;;7.29;100.00;101714.75;4976767;28;20141;-81
2021/12/12 13:37:40;;;;;;;17.00;11.00;;;;;;;7.24;100.00;101708.19;4982374;28;20137;-81
2021/12/12 13:40:36;;;;;;;;;;;;;;;;;;;;;
2021/12/12 13:43:22;;;;;;;9.63;7.00;;;;;;;7.25;100.00;101702.03;4982070;28;20057;-80
2021/12/12 13:46:20;;;;;;;13.48;10.20;;;;;;;7.31;100.00;101702.44;4983701;28;20046;-81
2021/12/12 13:49:04;;;;;;;23.63;15.93;;;;;;;7.25;100.00;101696.84;4983581;28;20525;-81
2021/12/12 13:52:05;;;;;;;20.33;15.07;;;;;;;7.27;100.00;101705.38;4984745;28;20137;-79
2021/12/12 13:55:00;;;;;;;26.90;20.38;;;;;;;7.26;100.00;101693.28;4984559;28;20100;-79
2021/12/12 13:57:44;;;;;;;12.07;8.27;;;;;;;7.25;100.00;101695.06;4984284;28;20130;-80
2021/12/12 14:00:33;;;;;;;8.52;7.15;;;;;;;7.19;100.00;101700.69;4984710;28;20057;-79
2021/12/12 14:03:14;;;;;;;10.75;7.35;;;;;;;7.15;100.00;101703.63;4983305;28;20051;-80
2021/12/12 14:05:45;;;;;;;9.25;7.35;;;;;;;7.20;100.00;101701.53;4983740;28;20046;-80
2021/12/12 14:11:02;;;;;;;15.80;13.77;;;;;;;7.19;100.00;101712.88;4983214;28;20449;-79
2021/12/12 14:13:35;;;;;;;15.90;14.20;;;;;;;7.38;100.00;101718.47;4981124;28;20054;-79
2021/12/12 14:16:27;;;;;;;14.35;10.50;;;;;;;7.27;100.00;101718.38;4985015;28;20408;-82
2021/12/12 14:19:01;;;;;;;9.50;6.82;;;;;;;7.26;100.00;101709.75;4985549;28;20436;-80
2021/12/12 14:21:49;;;;;;;12.88;11.50;;;;;;;7.35;100.00;101729.09;4986564;28;20088;-79
2021/12/12 14:24:25;;;;;;;10.45;7.50;;;;;;;7.33;100.00;101723.16;4983783;28;20043;-80
2021/12/12 14:27:21;;;;;;;8.25;6.50;;;;;;;7.43;100.00;101718.97;4983120;28;20058;-80
2021/12/12 14:29:48;;;;;;;9.63;7.82;;;;;;;7.31;100.00;101705.06;4982401;28;20051;-79
2021/12/12 14:32:25;;;;;;;9.85;8.43;;;;;;;7.48;100.00;101729.06;4983177;28;20402;-80
2021/12/12 14:34:59;;;;;;;9.68;6.72;;;;;;;7.43;100.00;101726.78;4985461;28;20108;-83
2021/12/12 14:37:35;;;;;;;8.90;7.28;;;;;;;7.38;100.00;101718.47;4983445;28;20051;-79
2021/12/12 14:40:07;;;;;;;11.75;7.80;;;;;;;7.30;100.00;101720.78;4982962;28;20080;-80
2021/12/12 14:42:38;;;;;;;9.95;7.78;;;;;;;7.34;100.00;101730.03;4985213;28;20126;-79
2021/12/12 14:45:09;;;;;;;8.98;7.32;;;;;;;7.32;100.00;101737.13;4985703;28;20109;-80
2021/12/12 14:47:40;;;;;;;8.98;6.93;;;;;;;7.37;100.00;101742.84;4984320;28;20050;-80